Time;durP1;ratioP1;P1;durP2;ratioP2;P2;SDS_P1;SDS_P2;PMS_P1;PMS_P2;Temp;Humidity;BMP_temperature;BMP_pressure;BME280_temperature;BME280_humidity;BME280_pressure;Samples;Min_cycle;Max_cycle;Signal;HPM_P1;HPM_P2
2023/05/26 00:01:14;;;;;;;26.08;6.10;;;7.50;99.90;;;;;;5038089;28;20080;-94
2023/05/26 00:03:50;;;;;;;34.22;6.88;;;7.40;99.90;;;;;;5024965;28;20108;-93
2023/05/26 00:06:20;;;;;;;34.55;6.38;;;7.40;99.90;;;;;;5038551;28;20048;-93
2023/05/26 00:08:52;;;;;;;34.72;6.30;;;7.40;99.90;;;;;;5024701;28;20047;-93
2023/05/26 00:11:21;;;;;;;32.95;6.55;;;7.40;99.90;;;;;;5038445;28;20044;-93
2023/05/26 00:13:50;;;;;;;38.70;7.38;;;7.40;99.90;;;;;;5038682;28;20254;-94
2023/05/26 00:16:22;;;;;;;34.67;6.45;;;7.40;99.90;;;;;;5036659;28;20047;-94
2023/05/26 00:18:54;;;;;;;41.08;7.15;;;7.30;99.90;;;;;;5028935;28;20052;-92
2023/05/26 00:21:23;;;;;;;32.25;6.38;;;8.00;99.90;;;;;;5034342;28;20128;-92
2023/05/26 00:23:54;;;;;;;31.60;7.53;;;7.30;99.90;;;;;;5030715;28;20105;-93
2023/05/26 00:26:21;;;;;;;41.17;6.65;;;7.20;99.90;;;;;;5030405;28;20405;-93
2023/05/26 00:29:07;;;;;;;39.13;7.60;;;7.20;99.90;;;;;;5033172;28;20194;-92
2023/05/26 00:31:41;;;;;;;35.85;6.93;;;7.20;99.90;;;;;;5032449;28;20053;-93
2023/05/26 00:34:10;;;;;;;35.70;6.93;;;7.20;99.90;;;;;;5020490;28;20088;-93
2023/05/26 00:36:42;;;;;;;42.47;8.35;;;7.20;99.90;;;;;;5008457;28;20053;-93
2023/05/26 00:39:10;;;;;;;48.42;7.28;;;7.40;99.90;;;;;;5022705;28;20143;-93
2023/05/26 00:41:45;;;;;;;39.63;7.07;;;7.20;99.90;;;;;;5039490;28;20205;-94
2023/05/26 00:44:11;;;;;;;39.72;7.72;;;7.20;99.90;;;;;;5020280;28;20369;-94
2023/05/26 00:46:37;;;;;;;32.20;6.55;;;7.20;99.90;;;;;;5019623;28;20033;-94
2023/05/26 00:49:09;;;;;;;40.00;7.72;;;7.30;99.90;;;;;;5018472;28;20037;-93
2023/05/26 00:51:43;;;;;;;40.00;7.50;;;7.20;99.90;;;;;;5018687;28;20094;-94
2023/05/26 00:54:09;;;;;;;41.85;6.63;;;7.20;99.90;;;;;;5038270;28;20049;-95
2023/05/26 00:56:38;;;;;;;31.33;6.47;;;7.20;99.90;;;;;;5053853;28;20041;-93
2023/05/26 00:59:11;;;;;;;32.53;6.45;;;7.20;99.90;;;;;;5035465;28;20048;-94
2023/05/26 01:01:37;;;;;;;34.58;6.75;;;7.10;99.90;;;;;;5021015;28;20036;-93
2023/05/26 01:04:03;;;;;;;28.30;5.72;;;7.10;99.90;;;;;;5030634;28;20045;-93
2023/05/26 01:06:29;;;;;;;28.30;6.18;;;7.00;99.90;;;;;;5035505;28;20045;-93
2023/05/26 01:09:07;;;;;;;43.00;7.15;;;7.00;99.90;;;;;;5016891;28;20481;-92
2023/05/26 01:11:43;;;;;;;33.15;6.82;;;7.00;99.90;;;;;;5018608;28;20033;-93
2023/05/26 01:14:21;;;;;;;37.63;7.55;;;7.10;99.90;;;;;;5019702;28;20134;-93
2023/05/26 01:17:16;;;;;;;34.30;5.68;;;7.10;99.90;;;;;;5019638;28;20114;-92
2023/05/26 01:20:07;;;;;;;31.50;7.55;;;7.00;99.90;;;;;;5016317;28;20041;-92
2023/05/26 01:23:01;;;;;;;40.45;6.90;;;6.80;99.90;;;;;;5019214;28;20485;-94
2023/05/26 01:25:44;;;;;;;31.83;6.75;;;7.00;99.90;;;;;;5027181;28;20045;-93
2023/05/26 01:28:32;;;;;;;43.95;6.75;;;7.00;99.90;;;;;;5035284;28;20049;-93
2023/05/26 01:31:08;;;;;;;35.67;6.63;;;7.00;99.90;;;;;;5020589;28;20048;-93
2023/05/26 01:33:37;;;;;;;45.00;6.78;;;7.00;99.90;;;;;;5027282;28;20119;-93
2023/05/26 01:36:02;;;;;;;35.58;6.78;;;7.00;99.90;;;;;;5041024;28;20139;-94
2023/05/26 01:55:04;;;;;;;40.00;7.47;;;6.90;99.90;;;;;;5028843;28;20049;-91
2023/05/26 01:57:32;;;;;;;35.55;6.50;;;7.00;99.90;;;;;;5017012;28;20487;-92
2023/05/26 02:03:17;;;;;;;37.53;6.53;;;6.90;99.90;;;;;;5022316;28;20088;-92
2023/05/26 02:05:55;;;;;;;38.05;6.63;;;6.90;99.90;;;;;;4996553;28;20132;-92
2023/05/26 02:08:40;;;;;;;34.55;6.93;;;6.30;99.90;;;;;;5027059;28;20060;-92
2023/05/26 02:11:16;;;;;;;45.15;7.68;;;7.30;99.90;;;;;;5005322;28;20057;-92
2023/05/26 02:14:01;;;;;;;43.15;7.68;;;6.60;99.90;;;;;;5028603;28;20135;-91
2023/05/26 02:16:58;;;;;;;46.33;7.40;;;6.90;99.90;;;;;;5025474;28;20049;-92
2023/05/26 02:19:36;;;;;;;38.20;7.07;;;6.90;99.90;;;;;;5014575;28;20046;-91
2023/05/26 02:22:13;;;;;;;34.35;6.80;;;6.80;99.90;;;;;;5021873;28;20087;-92
2023/05/26 02:24:57;;;;;;;39.58;7.22;;;7.00;99.90;;;;;;4997851;28;20351;-91
2023/05/26 02:27:31;;;;;;;36.55;7.85;;;6.80;99.90;;;;;;4985387;28;20116;-92
2023/05/26 02:30:04;;;;;;;31.88;6.65;;;6.70;99.90;;;;;;5012024;28;20049;-93
2023/05/26 02:32:55;;;;;;;31.98;6.47;;;7.40;99.90;;;;;;5023761;28;20589;-92
2023/05/26 02:35:34;;;;;;;40.33;7.75;;;6.70;99.90;;;;;;4995712;28;20042;-91
2023/05/26 02:38:38;;;;;;;35.88;6.78;;;6.60;99.90;;;;;;5000519;28;20037;-92
2023/05/26 02:41:42;;;;;;;34.63;6.63;;;6.60;99.90;;;;;;4979417;28;20056;-92
2023/05/26 02:44:18;;;;;;;43.40;7.68;;;6.60;99.90;;;;;;4927515;28;20064;-92
2023/05/26 02:47:06;;;;;;;31.30;6.35;;;6.60;99.90;;;;;;5023799;28;20064;-91
2023/05/26 02:50:01;;;;;;;32.47;6.10;;;6.60;99.90;;;;;;5011404;28;20057;-92
2023/05/26 02:52:52;;;;;;;35.55;6.88;;;6.60;99.90;;;;;;5016776;28;20050;-91
2023/05/26 02:55:52;;;;;;;35.50;6.80;;;6.60;99.90;;;;;;5012358;28;20057;-92
2023/05/26 02:58:38;;;;;;;37.70;6.60;;;6.30;99.90;;;;;;4995613;28;20081;-92
2023/05/26 03:01:24;;;;;;;33.72;6.97;;;6.60;99.90;;;;;;4965612;28;20509;-92
2023/05/26 03:04:10;;;;;;;42.78;7.55;;;6.60;99.90;;;;;;4961321;28;20038;-92
2023/05/26 03:07:01;;;;;;;34.53;6.78;;;6.60;99.90;;;;;;4973267;28;20053;-91
2023/05/26 03:09:38;;;;;;;33.65;7.28;;;6.50;99.90;;;;;;4964146;28;20046;-92
2023/05/26 03:12:27;;;;;;;35.80;6.30;;;6.50;99.90;;;;;;4965427;28;20046;-91
2023/05/26 03:15:03;;;;;;;29.48;5.47;;;6.50;99.90;;;;;;4943185;28;20526;-91
2023/05/26 03:17:32;;;;;;;39.80;7.57;;;6.50;99.90;;;;;;4971909;28;20081;-92
2023/05/26 03:20:10;;;;;;;34.05;6.53;;;6.50;99.90;;;;;;4996646;28;20050;-91
2023/05/26 03:22:44;;;;;;;36.50;6.97;;;6.60;99.90;;;;;;4979237;28;20053;-91
2023/05/26 03:25:12;;;;;;;31.08;6.88;;;6.90;99.90;;;;;;4979354;28;20038;-91
2023/05/26 03:27:53;;;;;;;36.03;6.72;;;6.00;99.90;;;;;;4979872;28;20054;-92
2023/05/26 03:30:44;;;;;;;35.58;6.35;;;6.50;99.90;;;;;;4987006;28;20046;-91
2023/05/26 03:33:16;;;;;;;33.03;7.22;;;6.40;99.90;;;;;;4984557;28;20056;-92
2023/05/26 03:35:45;;;;;;;41.22;6.75;;;6.30;99.90;;;;;;4980347;28;20025;-92
2023/05/26 03:38:19;;;;;;;43.30;7.07;;;6.30;99.90;;;;;;4990428;28;20385;-91
2023/05/26 03:41:16;;;;;;;33.42;6.70;;;6.40;99.90;;;;;;4978866;28;20042;-92
2023/05/26 03:44:18;;;;;;;33.70;6.97;;;6.30;99.90;;;;;;4995057;28;20133;-92
2023/05/26 03:46:55;;;;;;;38.42;6.70;;;6.40;99.90;;;;;;4990990;28;20484;-92
2023/05/26 03:50:05;;;;;;;31.67;6.05;;;6.40;99.90;;;;;;4996245;28;20469;-92
2023/05/26 03:52:53;;;;;;;35.10;6.07;;;6.50;99.90;;;;;;5015706;28;20221;-92
2023/05/26 03:55:53;;;;;;;30.38;6.85;;;7.00;99.90;;;;;;5017081;28;20076;-92
2023/05/26 03:59:12;;;;;;;37.67;6.75;;;6.40;99.90;;;;;;4997295;28;20045;-94
2023/05/26 04:01:59;;;;;;;41.08;6.80;;;6.60;99.90;;;;;;5026054;28;20263;-94
2023/05/26 04:04:27;;;;;;;36.78;6.85;;;6.60;99.90;;;;;;5005852;28;20041;-92
2023/05/26 04:07:19;;;;;;;31.92;6.68;;;7.00;99.90;;;;;;5005567;28;20041;-92
2023/05/26 04:09:50;;;;;;;40.80;7.28;;;6.70;99.90;;;;;;5001751;28;20385;-92
2023/05/26 04:12:45;;;;;;;37.00;6.40;;;7.20;99.90;;;;;;5013481;28;20053;-92
2023/05/26 04:15:51;;;;;;;36.80;6.85;;;6.80;99.90;;;;;;4967361;28;20054;-92
2023/05/26 04:18:23;;;;;;;36.25;6.82;;;6.90;99.90;;;;;;5029869;28;20053;-92
2023/05/26 04:21:16;;;;;;;41.97;7.63;;;7.50;99.90;;;;;;5006879;28;20057;-93
2023/05/26 04:24:07;;;;;;;32.03;6.68;;;7.00;99.90;;;;;;5006902;28;20049;-93
2023/05/26 04:26:39;;;;;;;39.05;6.25;;;6.90;99.90;;;;;;5058622;28;20069;-93
2023/05/26 04:29:12;;;;;;;40.53;7.88;;;7.10;99.90;;;;;;5011235;28;20053;-93
2023/05/26 04:32:00;;;;;;;37.75;6.50;;;7.10;99.90;;;;;;5019907;28;20048;-93
2023/05/26 04:34:34;;;;;;;40.42;7.93;;;7.20;99.90;;;;;;4987861;28;20116;-93
2023/05/26 04:37:50;;;;;;;35.92;7.00;;;7.30;99.90;;;;;;4999437;28;20045;-93
2023/05/26 04:40:19;;;;;;;38.72;7.90;;;7.40;99.90;;;;;;5004852;28;20069;-92
2023/05/26 04:43:12;;;;;;;33.22;6.20;;;7.40;99.90;;;;;;4997214;28;20413;-92
2023/05/26 04:45:56;;;;;;;37.63;6.80;;;7.30;99.90;;;;;;5012986;28;20065;-93
2023/05/26 04:48:43;;;;;;;32.20;6.32;;;7.60;99.90;;;;;;4987863;28;20060;-93
2023/05/26 04:51:47;;;;;;;43.28;7.13;;;7.70;99.90;;;;;;5008852;28;20064;-93
2023/05/26 04:57:33;;;;;;;39.10;6.45;;;7.90;99.90;;;;;;4958525;28;20058;-93
2023/05/26 05:00:42;;;;;;;31.65;6.18;;;8.10;99.90;;;;;;4993800;28;20134;-93
2023/05/26 05:03:20;;;;;;;40.00;6.32;;;8.20;99.90;;;;;;5013224;28;20064;-93
2023/05/26 05:06:08;;;;;;;26.42;5.88;;;8.20;99.90;;;;;;5005223;28;20131;-94
2023/05/26 05:09:21;;;;;;;32.20;6.53;;;8.40;99.90;;;;;;4988278;28;20309;-93
2023/05/26 05:11:57;;;;;;;29.27;5.60;;;8.70;99.90;;;;;;4973532;28;20049;-93
2023/05/26 05:15:44;;;;;;;27.85;6.00;;;8.60;99.90;;;;;;5013471;28;20081;-93
2023/05/26 05:18:16;;;;;;;42.38;5.93;;;8.80;99.90;;;;;;4999179;28;20084;-94
2023/05/26 05:20:57;;;;;;;32.65;5.97;;;8.90;99.90;;;;;;4984721;28;20080;-93
2023/05/26 05:24:02;;;;;;;29.65;5.90;;;9.10;99.90;;;;;;5014752;28;20080;-93
2023/05/26 05:26:53;;;;;;;41.22;7.13;;;9.40;99.90;;;;;;4996720;28;20049;-93
2023/05/26 05:29:39;;;;;;;33.30;6.30;;;9.40;99.90;;;;;;4980445;28;20049;-94
2023/05/26 05:32:20;;;;;;;33.80;6.13;;;9.30;99.90;;;;;;4996541;28;20049;-94
2023/05/26 05:34:55;;;;;;;30.85;6.38;;;9.60;99.90;;;;;;5013278;28;20099;-93
2023/05/26 05:37:28;;;;;;;30.55;5.32;;;9.80;99.90;;;;;;5026197;28;20073;-94
2023/05/26 05:43:19;;;;;;;33.25;6.03;;;10.00;99.90;;;;;;5020038;28;20045;-94
2023/05/26 05:46:16;;;;;;;34.95;5.55;;;10.10;99.90;;;;;;5026652;28;20195;-93
2023/05/26 05:48:54;;;;;;;34.13;5.95;;;10.30;99.90;;;;;;5013429;28;20087;-94
2023/05/26 05:51:28;;;;;;;27.10;5.47;;;10.40;99.90;;;;;;4997194;28;20049;-93
2023/05/26 05:54:10;;;;;;;33.70;5.97;;;10.50;99.90;;;;;;4996662;28;20054;-94
2023/05/26 05:57:12;;;;;;;34.20;5.47;;;10.50;99.90;;;;;;5013120;28;20057;-93
2023/05/26 06:03:07;;;;;;;32.05;5.80;;;10.70;99.90;;;;;;4994593;28;20096;-94
2023/05/26 06:06:02;;;;;;;31.65;5.10;;;11.40;99.90;;;;;;4997195;28;20049;-91
2023/05/26 06:09:01;;;;;;;28.88;5.72;;;10.90;99.90;;;;;;4980016;28;20060;-94
2023/05/26 06:11:43;;;;;;;28.83;4.90;;;10.90;99.90;;;;;;4993929;28;20052;-94
2023/05/26 06:14:46;;;;;;;34.47;5.75;;;11.50;99.90;;;;;;5010853;28;20065;-94
2023/05/26 06:17:16;;;;;;;27.60;4.70;;;10.90;99.90;;;;;;4978684;28;20080;-94
2023/05/26 06:20:14;;;;;;;31.45;5.55;;;10.60;99.90;;;;;;4995399;28;20077;-93
2023/05/26 06:22:45;;;;;;;29.58;5.75;;;10.60;99.90;;;;;;4951489;28;20127;-94
2023/05/26 06:25:19;;;;;;;33.70;5.35;;;10.40;99.90;;;;;;5005932;28;20037;-95
2023/05/26 06:27:55;;;;;;;30.08;5.57;;;10.60;99.90;;;;;;4998562;28;20495;-94
2023/05/26 06:30:47;;;;;;;28.83;5.05;;;10.60;99.90;;;;;;4987895;28;20471;-94
2023/05/26 06:33:45;;;;;;;24.50;4.85;;;10.70;99.90;;;;;;5019645;28;20179;-94
2023/05/26 06:39:29;;;;;;;27.75;5.32;;;11.10;99.90;;;;;;4982346;28;20440;-94
2023/05/26 06:42:28;;;;;;;23.42;4.93;;;11.30;99.90;;;;;;5011638;28;20053;-93
2023/05/26 06:45:00;;;;;;;28.77;5.85;;;11.40;99.90;;;;;;4947830;28;20084;-94
2023/05/26 06:47:58;;;;;;;26.33;5.20;;;11.60;99.90;;;;;;4989515;28;20148;-94
2023/05/26 06:50:44;;;;;;;24.02;4.20;;;11.70;99.90;;;;;;4945373;28;20520;-94
2023/05/26 06:56:58;;;;;;;22.00;4.50;;;12.10;99.90;;;;;;5050655;28;20188;-94
2023/05/26 06:59:49;;;;;;;28.48;5.32;;;12.30;99.90;;;;;;5021562;28;20362;-94
2023/05/26 07:02:44;;;;;;;27.88;4.75;;;12.40;99.90;;;;;;4979025;28;20084;-94
2023/05/26 07:05:12;;;;;;;21.02;3.90;;;12.50;99.90;;;;;;4978656;28;20111;-94
2023/05/26 07:07:41;;;;;;;25.95;4.63;;;12.60;99.90;;;;;;4983024;28;20058;-94
2023/05/26 07:10:33;;;;;;;23.13;3.58;;;12.60;99.90;;;;;;4997406;28;20488;-93
2023/05/26 07:13:37;;;;;;;17.75;3.50;;;13.10;99.90;;;;;;4977371;28;20046;-94
2023/05/26 07:19:19;;;;;;;20.38;3.38;;;12.60;99.90;;;;;;4999482;28;20107;-94
2023/05/26 07:22:02;;;;;;;18.70;3.97;;;12.90;99.90;;;;;;5048405;28;20053;-93
2023/05/26 07:24:46;;;;;;;14.52;3.10;;;12.90;99.90;;;;;;5027874;28;20684;-94
2023/05/26 07:27:13;;;;;;;15.00;3.60;;;13.20;99.90;;;;;;5021317;28;20048;-94
2023/05/26 07:30:14;;;;;;;18.20;3.38;;;13.00;99.90;;;;;;5004328;28;20057;-94
2023/05/26 07:33:47;;;;;;;24.17;3.88;;;13.10;99.90;;;;;;4977856;28;20057;-94
2023/05/26 07:36:28;;;;;;;20.33;3.78;;;13.10;99.90;;;;;;4979157;28;20060;-95
2023/05/26 07:41:48;;;;;;;21.08;3.45;;;13.30;99.90;;;;;;4981257;28;20120;-95
2023/05/26 07:44:14;;;;;;;19.67;3.90;;;13.40;99.90;;;;;;5013393;28;20622;-94
2023/05/26 07:50:23;;;;;;;21.30;3.58;;;13.60;99.90;;;;;;5112343;22;20078;-96
2023/05/26 07:52:53;;;;;;;16.33;2.92;;;13.80;99.90;;;;;;5029455;22;20053;-89
2023/05/26 07:55:18;;;;;;;16.10;3.53;;;13.90;99.90;;;;;;4988957;28;20533;-89
2023/05/26 07:57:44;;;;;;;18.63;3.58;;;14.10;99.90;;;;;;4988155;28;20413;-87
2023/05/26 08:00:10;;;;;;;23.20;5.18;;;14.10;99.90;;;;;;4974189;28;20103;-89
2023/05/26 08:02:38;;;;;;;18.52;3.53;;;14.20;99.90;;;;;;4973966;28;20042;-86
2023/05/26 08:05:04;;;;;;;21.75;3.30;;;14.20;99.90;;;;;;4983577;28;20081;-95
2023/05/26 08:07:30;;;;;;;19.60;3.67;;;14.20;99.90;;;;;;4986038;28;20077;-87
2023/05/26 08:09:56;;;;;;;17.90;3.35;;;14.20;99.90;;;;;;4987515;28;20057;-87
2023/05/26 08:12:23;;;;;;;21.38;3.65;;;14.10;99.90;;;;;;4967822;28;20038;-87
2023/05/26 08:14:49;;;;;;;16.70;3.92;;;14.20;99.90;;;;;;4993769;28;20448;-88
2023/05/26 08:17:15;;;;;;;20.20;3.63;;;14.20;99.90;;;;;;4972432;28;20088;-96
2023/05/26 08:19:41;;;;;;;19.08;3.65;;;14.30;99.90;;;;;;4998696;28;20052;-95
2023/05/26 08:22:06;;;;;;;15.48;3.20;;;14.40;99.90;;;;;;4980646;28;20474;-96
2023/05/26 08:24:34;;;;;;;17.77;2.78;;;14.40;99.90;;;;;;4990303;28;20050;-94
2023/05/26 08:27:00;;;;;;;17.20;3.38;;;14.40;99.90;;;;;;4977881;28;20052;-91
2023/05/26 08:29:28;;;;;;;24.40;3.80;;;14.40;99.90;;;;;;4981793;28;20224;-88
2023/05/26 08:31:55;;;;;;;22.67;4.07;;;14.40;99.90;;;;;;4978758;28;20057;-94
2023/05/26 08:34:21;;;;;;;15.60;3.25;;;14.40;99.90;;;;;;5010692;28;20132;-92
2023/05/26 08:36:47;;;;;;;21.25;3.80;;;14.40;99.90;;;;;;4978826;28;20041;-92
2023/05/26 08:39:12;;;;;;;26.90;4.25;;;14.50;99.90;;;;;;4960244;28;20046;-91
2023/05/26 08:42:00;;;;;;;15.10;3.47;;;14.60;99.90;;;;;;4993717;28;20065;-89
2023/05/26 08:44:26;;;;;;;21.70;3.78;;;14.80;99.90;;;;;;4990705;28;20046;-93
2023/05/26 08:46:55;;;;;;;23.77;3.47;;;14.90;99.90;;;;;;4977040;28;20131;-92
2023/05/26 08:49:22;;;;;;;18.23;3.80;;;15.00;99.90;;;;;;4977795;28;20054;-92
2023/05/26 08:52:00;;;;;;;18.75;4.20;;;14.90;99.90;;;;;;4973889;28;20061;-96
2023/05/26 08:54:26;;;;;;;20.55;3.78;;;15.00;99.90;;;;;;4976748;28;20064;-96
2023/05/26 08:56:52;;;;;;;17.83;2.97;;;15.00;99.90;;;;;;4976630;28;20046;-92
2023/05/26 08:59:19;;;;;;;21.52;3.97;;;15.00;99.90;;;;;;4971659;28;20402;-93
2023/05/26 09:01:45;;;;;;;21.88;3.88;;;15.00;99.90;;;;;;4978716;28;20081;-93
2023/05/26 09:04:10;;;;;;;18.35;4.18;;;15.10;99.90;;;;;;4981576;28;20081;-95
2023/05/26 09:06:43;;;;;;;14.65;2.67;;;15.20;99.90;;;;;;4994407;28;20045;-94
2023/05/26 09:09:09;;;;;;;17.35;3.08;;;15.20;99.90;;;;;;4985683;28;20041;-94
2023/05/26 09:11:42;;;;;;;17.08;3.42;;;15.30;99.90;;;;;;4979210;28;20441;-91
2023/05/26 09:14:11;;;;;;;19.77;3.47;;;15.40;99.90;;;;;;4979448;28;20073;-96
2023/05/26 09:16:38;;;;;;;22.60;3.83;;;15.50;99.90;;;;;;4969113;28;20048;-96
2023/05/26 09:19:04;;;;;;;17.45;3.50;;;15.60;99.90;;;;;;4978975;28;20071;-96
2023/05/26 09:21:30;;;;;;;20.52;3.63;;;15.60;99.90;;;;;;4978629;28;20410;-95
2023/05/26 09:23:59;;;;;;;19.95;3.67;;;15.70;99.90;;;;;;4974258;28;20097;-96
2023/05/26 09:26:29;;;;;;;18.85;3.60;;;15.70;99.90;;;;;;4974625;28;20081;-95
2023/05/26 09:28:55;;;;;;;18.10;3.45;;;15.90;99.90;;;;;;4967754;28;20046;-94
2023/05/26 09:31:21;;;;;;;17.63;3.65;;;15.90;99.90;;;;;;4977659;28;20053;-96
2023/05/26 09:33:47;;;;;;;17.75;3.42;;;16.00;99.90;;;;;;4978182;28;20129;-96
2023/05/26 09:36:16;;;;;;;15.50;3.53;;;16.10;99.90;;;;;;4990088;28;20162;-96
2023/05/26 09:38:52;;;;;;;14.48;3.65;;;16.30;99.90;;;;;;4985454;28;20106;-96
2023/05/26 09:41:19;;;;;;;16.90;3.67;;;16.40;99.90;;;;;;4982009;28;20093;-95
2023/05/26 09:43:45;;;;;;;20.35;3.63;;;16.50;99.90;;;;;;4977783;28;20045;-96
2023/05/26 09:46:21;;;;;;;21.45;3.95;;;16.60;99.90;;;;;;4976434;28;20050;-95
2023/05/26 09:48:51;;;;;;;19.50;3.63;;;16.80;99.90;;;;;;4976846;28;20075;-96
2023/05/26 09:51:19;;;;;;;16.50;3.35;;;16.90;99.90;;;;;;4979785;28;20049;-96
2023/05/26 09:53:48;;;;;;;18.95;3.70;;;17.00;99.90;;;;;;4980223;28;20086;-96
2023/05/26 09:56:18;;;;;;;19.03;3.57;;;17.20;99.90;;;;;;4980157;28;20104;-96
2023/05/26 09:58:47;;;;;;;19.38;3.95;;;17.10;99.90;;;;;;4978196;28;20052;-96
2023/05/26 10:01:13;;;;;;;16.33;3.38;;;16.90;99.90;;;;;;4977103;28;20037;-96
2023/05/26 10:03:38;;;;;;;23.48;3.88;;;16.60;99.90;;;;;;4977015;28;20042;-95
2023/05/26 10:06:05;;;;;;;24.75;3.85;;;16.10;99.90;;;;;;4993803;28;20048;-95
2023/05/26 10:08:32;;;;;;;18.67;3.65;;;15.80;99.90;;;;;;4972523;28;20050;-96
2023/05/26 10:11:07;;;;;;;22.08;4.00;;;15.90;99.90;;;;;;4985619;28;20042;-96
2023/05/26 10:13:34;;;;;;;17.33;3.83;;;16.00;99.90;;;;;;4980752;28;20050;-95
2023/05/26 10:16:00;;;;;;;16.00;3.42;;;15.80;99.90;;;;;;4974969;28;20057;-96
2023/05/26 10:18:26;;;;;;;19.38;3.92;;;15.60;99.90;;;;;;4977318;28;20272;-96
2023/05/26 10:21:05;;;;;;;22.85;4.40;;;15.70;99.90;;;;;;4993560;28;20072;-96
2023/05/26 10:23:42;;;;;;;16.98;3.80;;;16.00;99.90;;;;;;4981541;28;20046;-94
2023/05/26 10:26:15;;;;;;;20.73;3.90;;;16.20;99.90;;;;;;4963828;28;20073;-94
2023/05/26 10:28:52;;;;;;;19.80;4.03;;;16.40;99.90;;;;;;4978982;28;20069;-96
2023/05/26 10:31:29;;;;;;;17.00;3.03;;;16.40;99.90;;;;;;4972722;28;20104;-96
2023/05/26 10:33:56;;;;;;;22.55;3.83;;;16.50;99.90;;;;;;4976110;28;20497;-96
2023/05/26 10:36:21;;;;;;;19.42;3.63;;;16.60;99.90;;;;;;4976670;28;20056;-95
2023/05/26 10:39:04;;;;;;;18.15;3.67;;;16.70;99.90;;;;;;4975885;28;20101;-95
2023/05/26 10:41:32;;;;;;;17.80;3.70;;;16.70;99.90;;;;;;4976454;28;20049;-96
2023/05/26 10:44:03;;;;;;;18.42;3.45;;;16.90;99.90;;;;;;4976685;28;20037;-95
2023/05/26 10:46:38;;;;;;;15.02;3.47;;;17.00;99.90;;;;;;4981961;28;20409;-94
2023/05/26 10:49:17;;;;;;;19.70;3.55;;;17.10;99.90;;;;;;4976934;28;20142;-95
2023/05/26 10:51:50;;;;;;;18.77;4.05;;;17.20;99.90;;;;;;4975303;28;20126;-96
2023/05/26 10:54:18;;;;;;;;;;;17.20;99.90;;;;;;4975153;28;20204;-95
2023/05/26 10:56:48;;;;;;;13.63;3.38;;;17.30;99.90;;;;;;4972663;28;20408;-96
2023/05/26 10:59:28;;;;;;;22.20;3.40;;;17.40;99.90;;;;;;4975589;28;20074;-96
2023/05/26 11:01:54;;;;;;;14.90;3.45;;;17.60;99.90;;;;;;4963804;28;20096;-96
2023/05/26 11:04:21;;;;;;;20.80;3.63;;;17.60;99.90;;;;;;4976768;28;20069;-94
2023/05/26 11:06:59;;;;;;;30.75;4.82;;;17.50;99.90;;;;;;4976701;28;20103;-94
2023/05/26 11:09:27;;;;;;;16.90;3.83;;;17.40;99.90;;;;;;4977151;28;20049;-96
2023/05/26 11:11:57;;;;;;;21.27;3.97;;;17.20;99.90;;;;;;4977768;28;20125;-96
2023/05/26 11:14:25;;;;;;;20.92;3.60;;;16.90;99.90;;;;;;4976461;28;20457;-94
2023/05/26 11:16:54;;;;;;;24.13;3.85;;;16.60;99.90;;;;;;4968299;28;20037;-93
2023/05/26 11:19:31;;;;;;;21.88;4.20;;;16.60;99.90;;;;;;4985160;28;20041;-92
2023/05/26 11:21:59;;;;;;;16.73;3.35;;;16.70;99.90;;;;;;4979195;28;20201;-96
2023/05/26 11:24:26;;;;;;;24.17;4.32;;;16.90;99.90;;;;;;4980216;28;20054;-94
2023/05/26 11:26:53;;;;;;;18.92;4.32;;;17.20;99.90;;;;;;4997758;28;20042;-96
2023/05/26 11:29:23;;;;;;;23.15;4.40;;;17.40;99.90;;;;;;4995459;28;20041;-96
2023/05/26 11:31:51;;;;;;;18.98;4.03;;;17.40;99.90;;;;;;5023307;28;20604;-96
2023/05/26 11:34:24;;;;;;;18.00;3.67;;;17.10;99.90;;;;;;4979667;28;20065;-96
2023/05/26 11:36:53;;;;;;;20.50;4.20;;;16.90;99.90;;;;;;4980766;28;20046;-95
2023/05/26 11:39:31;;;;;;;22.10;3.88;;;17.10;99.90;;;;;;4993898;28;20050;-96
2023/05/26 11:42:07;;;;;;;16.23;3.42;;;16.90;99.90;;;;;;4987434;28;20052;-96
2023/05/26 11:44:33;;;;;;;20.00;3.97;;;17.00;99.90;;;;;;4972589;28;20038;-96
2023/05/26 11:46:58;;;;;;;21.45;4.18;;;17.20;99.90;;;;;;4984230;28;20037;-96
2023/05/26 11:49:24;;;;;;;23.35;4.63;;;17.30;99.90;;;;;;4988302;28;20111;-93
2023/05/26 11:51:52;;;;;;;21.20;4.75;;;17.60;99.90;;;;;;4978932;28;20049;-94
2023/05/26 11:54:20;;;;;;;20.38;4.13;;;17.60;99.90;;;;;;4996963;28;20046;-96
2023/05/26 11:56:51;;;;;;;19.38;4.35;;;17.60;99.90;;;;;;5019018;28;20057;-96
2023/05/26 11:59:57;;;;;;;18.20;3.97;;;17.40;99.90;;;;;;5051224;22;20051;-94
2023/05/26 12:02:44;;;;;;;22.20;4.20;;;17.40;99.90;;;;;;5030463;28;20040;-92
2023/05/26 12:05:43;;;;;;;22.48;4.53;;;17.30;99.90;;;;;;4988372;28;20073;-91
2023/05/26 12:08:29;;;;;;;29.35;5.07;;;17.10;99.90;;;;;;5026874;28;20048;-92
2023/05/26 12:10:58;;;;;;;19.17;3.72;;;17.00;99.90;;;;;;5034998;28;20130;-91
2023/05/26 12:14:05;;;;;;;16.67;3.78;;;16.90;99.90;;;;;;5037461;28;20125;-92
2023/05/26 12:16:35;;;;;;;18.73;3.42;;;17.20;99.90;;;;;;5054410;28;20118;-93
2023/05/26 12:19:18;;;;;;;21.73;3.97;;;17.60;99.90;;;;;;5045639;28;20070;-92
2023/05/26 12:21:52;;;;;;;20.27;3.83;;;17.70;99.90;;;;;;5031347;28;20077;-91
2023/05/26 12:24:37;;;;;;;;;;;17.70;99.90;;;;;;5041666;28;20067;-93
2023/05/26 12:27:35;;;;;;;18.33;4.00;;;17.60;99.90;;;;;;5038887;28;19924;-93
2023/05/26 12:30:27;;;;;;;22.40;4.20;;;18.10;99.90;;;;;;5030298;28;20661;-92
2023/05/26 12:33:15;;;;;;;21.40;4.80;;;17.90;99.90;;;;;;5031922;28;20119;-92
2023/05/26 12:35:41;;;;;;;21.10;4.70;;;17.70;99.90;;;;;;5038595;28;20052;-92
2023/05/26 12:38:29;;;;;;;19.08;4.70;;;17.50;99.90;;;;;;5028262;28;20044;-92
2023/05/26 12:41:03;;;;;;;14.55;3.63;;;17.50;99.90;;;;;;5039958;28;20415;-91
2023/05/26 12:43:47;;;;;;;17.35;3.85;;;17.30;99.90;;;;;;5041935;28;20075;-92
2023/05/26 12:46:13;;;;;;;21.70;4.13;;;17.30;99.90;;;;;;5029610;28;20055;-91
2023/05/26 12:48:45;;;;;;;20.25;3.97;;;17.40;99.90;;;;;;5034522;28;20346;-91
2023/05/26 12:51:19;;;;;;;23.90;4.32;;;17.40;99.90;;;;;;5028204;28;20037;-91
2023/05/26 12:53:56;;;;;;;18.52;4.20;;;17.30;99.90;;;;;;5036920;28;20052;-92
2023/05/26 12:56:29;;;;;;;27.13;5.10;;;17.10;99.90;;;;;;5044614;28;20048;-91
2023/05/26 12:59:12;;;;;;;27.75;5.22;;;16.90;99.90;;;;;;5037122;28;20075;-91
2023/05/26 13:01:47;;;;;;;19.88;4.95;;;16.90;99.90;;;;;;5037177;28;20083;-91
2023/05/26 13:04:22;;;;;;;20.65;4.85;;;16.80;99.90;;;;;;5036813;28;20377;-92
2023/05/26 13:06:59;;;;;;;24.63;4.75;;;17.20;99.90;;;;;;5037097;28;20059;-94
2023/05/26 13:09:29;;;;;;;24.65;4.75;;;17.10;99.90;;;;;;5037998;28;20558;-94
2023/05/26 13:12:01;;;;;;;25.13;4.90;;;17.00;99.90;;;;;;5033352;28;20501;-95
2023/05/26 13:14:49;;;;;;;26.83;4.93;;;16.80;99.90;;;;;;5042095;28;20048;-95
2023/05/26 13:17:47;;;;;;;21.35;4.53;;;16.80;99.90;;;;;;5027956;28;20045;-94
2023/05/26 13:20:51;;;;;;;;;;;17.10;99.90;;;;;;5046920;28;20483;-95
2023/05/26 13:23:26;;;;;;;22.58;4.95;;;17.00;99.90;;;;;;5030669;28;20344;-95
2023/05/26 13:26:13;;;;;;;24.00;4.68;;;16.80;99.90;;;;;;5059777;28;20043;-95
2023/05/26 13:29:11;;;;;;;23.20;5.18;;;16.90;99.90;;;;;;5046240;28;20086;-95
2023/05/26 13:32:08;;;;;;;23.17;5.22;;;16.80;99.90;;;;;;5025913;28;20068;-94
2023/05/26 13:38:04;;;;;;;26.70;5.22;;;16.60;99.90;;;;;;5066172;28;20056;-94
2023/05/26 13:41:27;;;;;;;31.67;5.18;;;16.40;99.90;;;;;;5030217;28;20734;-94
2023/05/26 13:44:12;;;;;;;18.40;4.30;;;16.30;99.90;;;;;;5043445;28;20044;-94
2023/05/26 13:46:55;;;;;;;24.27;4.82;;;16.30;99.90;;;;;;5034868;28;20049;-94
2023/05/26 13:49:32;;;;;;;28.13;4.75;;;16.30;99.90;;;;;;5032591;28;20275;-93
2023/05/26 13:52:33;;;;;;;26.75;4.55;;;16.30;99.90;;;;;;5034863;28;20571;-92
2023/05/26 13:55:06;;;;;;;23.73;4.30;;;16.30;99.90;;;;;;5012210;28;20526;-93
2023/05/26 13:57:39;;;;;;;25.38;4.18;;;16.30;99.90;;;;;;5037118;28;20143;-93
2023/05/26 14:00:31;;;;;;;22.10;4.53;;;16.30;99.90;;;;;;5023532;28;20102;-93
2023/05/26 14:03:04;;;;;;;26.33;4.72;;;16.30;99.90;;;;;;5029096;28;20056;-93
2023/05/26 14:05:33;;;;;;;22.00;4.10;;;16.20;99.90;;;;;;5030428;28;20108;-93
2023/05/26 14:08:14;;;;;;;12.43;3.22;;;16.10;99.90;;;;;;5028321;28;20055;-92
2023/05/26 14:10:55;;;;;;;19.73;4.13;;;16.20;99.90;;;;;;5043974;28;20098;-93
2023/05/26 14:13:31;;;;;;;24.27;4.68;;;16.20;99.90;;;;;;5034920;28;20404;-93
2023/05/26 14:16:08;;;;;;;21.45;4.65;;;16.20;99.90;;;;;;5034832;28;20059;-92
2023/05/26 14:19:18;;;;;;;22.42;4.40;;;16.20;99.90;;;;;;5040715;28;20040;-94
2023/05/26 14:21:52;;;;;;;18.52;4.20;;;16.30;99.90;;;;;;5036208;28;20044;-93
2023/05/26 14:24:18;;;;;;;45.03;5.82;;;16.00;99.90;;;;;;5021559;28;20036;-93
2023/05/26 14:26:58;;;;;;;19.20;4.43;;;15.50;99.90;;;;;;5030325;28;20441;-94